createdAt,value
2019-05-26T00:02:57.426Z,67.20
2019-05-26T00:08:02.744Z,67.91
2019-05-26T00:13:07.908Z,68.13
2019-05-26T00:18:13.145Z,68.97
2019-05-26T00:23:18.299Z,69.54
2019-05-26T00:28:23.541Z,69.11
2019-05-26T00:33:29.563Z,69.11
2019-05-26T00:38:35.502Z,68.80
2019-05-26T00:43:40.738Z,69.22
2019-05-26T00:48:46.097Z,69.44
2019-05-26T00:53:51.317Z,68.82
2019-05-26T00:58:56.866Z,69.25
2019-05-26T01:04:02.764Z,69.16
2019-05-26T01:09:09.482Z,69.61
2019-05-26T01:14:14.796Z,70.21
2019-05-26T01:19:20.497Z,70.01
2019-05-26T01:24:26.091Z,69.98
2019-05-26T01:29:31.363Z,70.33
2019-05-26T01:34:36.619Z,70.43
2019-05-26T01:39:41.853Z,70.23
2019-05-26T01:44:47.128Z,70.24
2019-05-26T01:49:52.365Z,70.17
2019-05-26T01:54:57.597Z,70.31
2019-05-26T02:00:02.849Z,69.74
2019-05-26T02:05:09.683Z,69.99
2019-05-26T02:10:15.313Z,70.53
2019-05-26T02:15:21.670Z,70.42
2019-05-26T02:20:27.022Z,71.23
2019-05-26T02:25:32.268Z,70.88
2019-05-26T02:30:37.511Z,71.07
2019-05-26T02:35:42.756Z,72.13
2019-05-26T02:40:48.045Z,72.16
2019-05-26T02:45:53.279Z,72.43
2019-05-26T02:50:59.114Z,71.92
2019-05-26T02:56:05.349Z,72.27
2019-05-26T03:01:11.351Z,71.62
2019-05-26T03:06:18.428Z,71.63
2019-05-26T03:11:26.483Z,71.87
2019-05-26T03:16:34.278Z,71.63
2019-05-26T03:21:39.671Z,71.85
2019-05-26T03:26:44.952Z,72.88
2019-05-26T03:31:50.217Z,72.51
2019-05-26T03:36:56.451Z,72.84
2019-05-26T03:42:01.851Z,72.90
2019-05-26T03:47:07.547Z,72.73
2019-05-26T03:52:12.820Z,73.42
2019-05-26T03:57:18.355Z,73.31
2019-05-26T04:02:23.609Z,73.66
2019-05-26T04:07:28.897Z,74.36
2019-05-26T04:12:34.456Z,74.05
2019-05-26T04:17:39.704Z,73.99
2019-05-26T04:22:45.252Z,73.52
2019-05-26T04:27:50.884Z,73.59
2019-05-26T04:32:56.710Z,73.76
2019-05-26T04:38:01.983Z,74.75
2019-05-26T04:43:07.236Z,73.95
2019-05-26T04:48:13.205Z,73.72
2019-05-26T04:53:18.859Z,73.97
2019-05-26T04:58:24.472Z,73.30
2019-05-26T05:03:29.772Z,74.16
2019-05-26T05:08:35.043Z,73.62
2019-05-26T05:13:40.936Z,73.40
2019-05-26T05:18:46.881Z,73.02
2019-05-26T05:23:52.150Z,72.42
2019-05-26T05:28:57.389Z,72.83
2019-05-26T05:34:02.664Z,72.46
2019-05-26T05:39:08.732Z,72.20
2019-05-26T05:44:14.603Z,71.09
2019-05-26T05:49:21.208Z,70.60
2019-05-26T05:54:26.479Z,70.57
2019-05-26T05:59:32.224Z,70.79
2019-05-26T06:04:37.531Z,69.61
2019-05-26T06:09:42.862Z,69.43
2019-05-26T06:14:48.166Z,69.61
2019-05-26T06:19:53.463Z,68.59
2019-05-26T06:24:58.719Z,68.21
2019-05-26T06:30:04.809Z,68.16
2019-05-26T06:35:10.549Z,68.52
2019-05-26T06:40:15.836Z,68.08
2019-05-26T06:45:21.295Z,67.53
2019-05-26T06:50:26.554Z,67.04
2019-05-26T06:55:31.860Z,66.67
2019-05-26T07:00:37.520Z,65.76
2019-05-26T07:05:42.800Z,65.03
2019-05-26T07:10:48.060Z,63.75
2019-05-26T07:15:53.327Z,63.74
2019-05-26T07:20:58.596Z,62.91
2019-05-26T07:26:04.270Z,63.08
2019-05-26T07:31:09.535Z,62.21
2019-05-26T07:36:15.675Z,61.74
2019-05-26T07:41:20.937Z,60.42
2019-05-26T07:46:26.192Z,59.99
2019-05-26T07:51:31.818Z,59.52
2019-05-26T07:56:37.090Z,59.21
2019-05-26T08:01:43.169Z,57.34
2019-05-26T08:06:48.558Z,58.71
2019-05-26T08:11:55.266Z,57.81
2019-05-26T08:17:00.519Z,57.54
2019-05-26T08:22:06.379Z,55.31
2019-05-26T08:27:11.786Z,52.67
2019-05-26T08:32:17.774Z,52.31
2019-05-26T08:37:22.990Z,51.98
2019-05-26T08:42:42.055Z,50.28
2019-05-26T08:47:35.181Z,48.79
2019-05-26T08:52:40.523Z,48.50
2019-05-26T08:57:45.782Z,47.36
2019-05-26T09:02:51.489Z,46.44
2019-05-26T09:07:56.735Z,47.09
2019-05-26T09:13:08.727Z,47.98
2019-05-26T09:18:14.325Z,45.69
2019-05-26T09:23:19.708Z,46.22
2019-05-26T09:28:24.993Z,47.63
2019-05-26T09:33:30.247Z,47.36
2019-05-26T09:38:35.500Z,46.01
2019-05-26T09:43:40.764Z,46.04
2019-05-26T09:48:46.023Z,42.84
2019-05-26T09:54:01.438Z,43.58
2019-05-26T09:59:00.369Z,45.27
2019-05-26T10:04:06.258Z,44.16
2019-05-26T10:09:11.496Z,45.76
2019-05-26T10:14:16.678Z,45.20
2019-05-26T10:19:21.943Z,45.79
2019-05-26T10:24:27.197Z,45.58
2019-05-26T10:29:32.648Z,45.27
2019-05-26T10:34:37.907Z,45.88
2019-05-26T10:39:45.223Z,46.44
2019-05-26T10:44:50.298Z,46.75
2019-05-26T10:49:55.859Z,43.66
2019-05-26T10:55:01.508Z,44.59
2019-05-26T11:00:08.540Z,44.13
2019-05-26T11:05:14.508Z,43.96
2019-05-26T11:10:19.860Z,43.74
2019-05-26T11:15:25.157Z,42.87
2019-05-26T11:20:30.405Z,42.24
2019-05-26T11:25:35.702Z,40.79
2019-05-26T11:30:41.010Z,40.96
2019-05-26T11:35:46.270Z,42.30
2019-05-26T11:40:51.621Z,41.98
2019-05-26T11:45:56.892Z,42.96
2019-05-26T11:51:02.797Z,41.14
2019-05-26T11:56:08.787Z,40.46
2019-05-26T12:01:14.418Z,40.59
2019-05-26T12:06:20.003Z,39.81
2019-05-26T12:11:25.606Z,40.41
2019-05-26T12:16:30.848Z,42.10
2019-05-26T12:21:36.449Z,40.68
2019-05-26T12:26:41.746Z,40.61
2019-05-26T12:31:47.135Z,39.82
2019-05-26T12:36:52.425Z,39.40
2019-05-26T12:41:57.683Z,40.24
2019-05-26T12:47:02.934Z,37.89
2019-05-26T12:52:08.272Z,38.99
2019-05-26T12:57:13.535Z,39.44
2019-05-26T13:02:19.115Z,38.92
2019-05-26T13:07:24.702Z,37.62
2019-05-26T13:12:29.970Z,40.10
2019-05-26T13:17:35.211Z,39.14
2019-05-26T13:22:41.079Z,37.73
2019-05-26T13:27:46.406Z,36.98
2019-05-26T13:32:52.022Z,38.03
2019-05-26T13:37:57.271Z,38.49
2019-05-26T13:43:02.538Z,38.90
2019-05-26T13:48:07.787Z,36.28
2019-05-26T13:53:13.371Z,36.17
2019-05-26T13:58:18.648Z,36.19
2019-05-26T14:03:24.462Z,36.30
2019-05-26T14:08:31.220Z,36.30
2019-05-26T14:13:36.475Z,37.26
2019-05-26T14:18:43.426Z,38.67
2019-05-26T14:23:48.683Z,37.40
2019-05-26T14:28:53.896Z,35.88
2019-05-26T14:33:59.132Z,34.72
2019-05-26T14:39:06.169Z,37.38
2019-05-26T14:44:11.422Z,38.84
2019-05-26T14:49:16.695Z,38.09
2019-05-26T14:54:21.949Z,39.30
2019-05-26T14:59:27.193Z,38.65
2019-05-26T15:04:32.447Z,37.46
2019-05-26T15:09:37.703Z,39.32
2019-05-26T15:14:44.047Z,39.32
2019-05-26T15:19:49.283Z,37.96
2019-05-26T15:24:55.512Z,38.19
2019-05-26T15:30:00.781Z,38.15
2019-05-26T15:35:06.826Z,38.91
2019-05-26T15:40:16.385Z,39.93
2019-05-26T15:45:21.642Z,41.21
2019-05-26T15:50:27.353Z,41.64
2019-05-26T15:55:32.613Z,40.83
2019-05-26T16:00:38.010Z,39.47
2019-05-26T16:05:43.618Z,38.84
2019-05-26T16:10:48.874Z,38.56
2019-05-26T16:15:54.127Z,37.19
2019-05-26T16:21:03.266Z,38.44
2019-05-26T16:26:06.479Z,38.77
2019-05-26T16:31:12.414Z,39.13
2019-05-26T16:36:21.130Z,40.72
2019-05-26T16:41:25.135Z,39.24
2019-05-26T16:46:30.384Z,39.30
2019-05-26T16:51:35.950Z,39.00
2019-05-26T16:56:42.393Z,40.29
2019-05-26T17:01:47.634Z,40.09
2019-05-26T17:06:53.151Z,39.49
2019-05-26T17:11:58.845Z,39.20
2019-05-26T17:17:14.388Z,39.97
2019-05-26T17:22:11.357Z,41.12
2019-05-26T17:27:17.381Z,40.93
2019-05-26T17:32:22.665Z,42.46
2019-05-26T17:37:27.836Z,43.83
2019-05-26T17:42:33.122Z,43.19
2019-05-26T17:47:38.714Z,41.96
2019-05-26T17:52:43.990Z,42.17
2019-05-26T17:57:49.240Z,42.62
2019-05-26T18:02:55.323Z,42.87
2019-05-26T18:08:00.850Z,43.52
2019-05-26T18:13:06.580Z,43.95
2019-05-26T18:18:11.832Z,44.16
2019-05-26T18:23:17.458Z,44.39
2019-05-26T18:28:23.098Z,44.22
2019-05-26T18:33:28.359Z,43.81
2019-05-26T18:38:34.021Z,45.41
2019-05-26T18:43:39.280Z,45.63
2019-05-26T18:48:44.701Z,46.27
2019-05-26T18:53:49.969Z,45.98
2019-05-26T18:58:55.229Z,46.48
2019-05-26T19:04:00.477Z,47.30
2019-05-26T19:09:08.808Z,47.60
2019-05-26T19:14:14.159Z,48.39
2019-05-26T19:19:19.426Z,48.87
2019-05-26T19:24:24.679Z,49.48
2019-05-26T19:29:29.957Z,49.09
2019-05-26T19:34:35.206Z,48.75
2019-05-26T19:39:40.843Z,49.12
2019-05-26T19:44:46.146Z,48.80
2019-05-26T19:49:52.379Z,48.67
2019-05-26T19:54:57.681Z,48.10
2019-05-26T20:00:03.080Z,48.32
2019-05-26T20:05:09.622Z,48.30
2019-05-26T20:10:16.346Z,48.85
2019-05-26T20:15:21.764Z,49.27
2019-05-26T20:20:27.131Z,49.25
2019-05-26T20:25:32.552Z,49.39
2019-05-26T20:30:38.165Z,49.34
2019-05-26T20:35:43.408Z,49.68
2019-05-26T20:40:49.009Z,49.73
2019-05-26T20:45:55.269Z,49.86
2019-05-26T20:51:00.514Z,50.00
2019-05-26T20:56:05.767Z,50.36
2019-05-26T21:01:11.040Z,49.98
2019-05-26T21:06:16.337Z,50.44
2019-05-26T21:11:21.528Z,50.08
2019-05-26T21:16:26.795Z,50.35
2019-05-26T21:21:32.909Z,50.54
2019-05-26T21:26:38.191Z,50.70
2019-05-26T21:31:43.478Z,51.05
2019-05-26T21:36:48.736Z,51.80
2019-05-26T21:41:53.995Z,51.80
2019-05-26T21:46:59.237Z,52.84
2019-05-26T21:52:04.593Z,52.05
2019-05-26T21:57:09.843Z,52.28
2019-05-26T22:02:15.826Z,52.52
2019-05-26T22:07:21.089Z,53.25
2019-05-26T22:12:26.659Z,53.99
2019-05-26T22:17:32.311Z,54.19
2019-05-26T22:22:38.624Z,53.78
2019-05-26T22:27:43.934Z,54.30
2019-05-26T22:32:49.517Z,54.59
2019-05-26T22:37:55.049Z,53.91
2019-05-26T22:43:00.309Z,54.26
2019-05-26T22:48:06.724Z,53.95
2019-05-26T22:53:11.943Z,54.44
2019-05-26T22:58:17.268Z,55.06
2019-05-26T23:03:22.501Z,55.87
2019-05-26T23:08:28.658Z,56.47
2019-05-26T23:13:34.242Z,56.12
2019-05-26T23:18:40.560Z,56.34
2019-05-26T23:23:45.774Z,56.09
2019-05-26T23:28:51.061Z,56.00
2019-05-26T23:33:56.305Z,55.95
2019-05-26T23:39:01.624Z,56.81
2019-05-26T23:44:07.204Z,56.91
2019-05-26T23:49:12.447Z,56.68
2019-05-26T23:54:17.717Z,56.54
2019-05-26T23:59:24.053Z,56.69
